sensor_id;sensor_type;location;lat;lon;timestamp;pressure;altitude;pressure_sealevel;temperature;humidity
10482;BME280;5288;42.334;23.876;2022-12-08T00:02:24;56622.56;;;-140.56;79.61
10482;BME280;5288;42.334;23.876;2022-12-08T00:04:51;56588.97;;;-140.56;79.19
10482;BME280;5288;42.334;23.876;2022-12-08T00:07:38;56624.56;;;-140.56;78.70
10482;BME280;5288;42.334;23.876;2022-12-08T00:10:23;56620.59;;;-140.56;78.52
10482;BME280;5288;42.334;23.876;2022-12-08T00:12:50;56571.19;;;-140.56;78.42
10482;BME280;5288;42.334;23.876;2022-12-08T00:15:17;56604.78;;;-140.56;78.36
10482;BME280;5288;42.334;23.876;2022-12-08T00:17:44;56594.91;;;-140.56;78.81
10482;BME280;5288;42.334;23.876;2022-12-08T00:20:11;56590.94;;;-140.56;79.01
10482;BME280;5288;42.334;23.876;2022-12-08T00:22:39;56616.66;;;-140.56;78.97
10482;BME280;5288;42.334;23.876;2022-12-08T00:25:06;56606.75;;;-140.56;79.64
10482;BME280;5288;42.334;23.876;2022-12-08T00:27:33;56606.75;;;-140.56;80.55
10482;BME280;5288;42.334;23.876;2022-12-08T00:30:00;56604.78;;;-140.56;80.63
10482;BME280;5288;42.334;23.876;2022-12-08T00:32:27;56628.50;;;-140.56;79.95
10482;BME280;5288;42.334;23.876;2022-12-08T00:34:54;56610.72;;;-140.56;80.79
10482;BME280;5288;42.334;23.876;2022-12-08T00:37:21;56634.44;;;-140.56;82.20
10482;BME280;5288;42.334;23.876;2022-12-08T00:39:50;56612.69;;;-140.56;81.78
10482;BME280;5288;42.334;23.876;2022-12-08T00:42:17;56588.97;;;-140.56;81.62
10482;BME280;5288;42.334;23.876;2022-12-08T00:44:44;56587.00;;;-140.56;82.06
10482;BME280;5288;42.334;23.876;2022-12-08T00:47:13;56600.84;;;-140.56;81.51
10482;BME280;5288;42.334;23.876;2022-12-08T00:49:40;56604.78;;;-140.56;81.19
10482;BME280;5288;42.334;23.876;2022-12-08T00:52:07;56614.66;;;-140.56;80.87
10482;BME280;5288;42.334;23.876;2022-12-08T00:54:34;56594.91;;;-140.56;81.05
10482;BME280;5288;42.334;23.876;2022-12-08T00:57:03;56598.84;;;-140.56;80.98
10482;BME280;5288;42.334;23.876;2022-12-08T00:59:30;56594.91;;;-140.56;81.09
10482;BME280;5288;42.334;23.876;2022-12-08T01:01:57;56624.56;;;-140.56;81.14
10482;BME280;5288;42.334;23.876;2022-12-08T01:04:24;56600.84;;;-140.56;81.66
10482;BME280;5288;42.334;23.876;2022-12-08T01:06:51;56600.84;;;-140.56;81.97
10482;BME280;5288;42.334;23.876;2022-12-08T01:09:18;56638.38;;;-140.56;81.68
10482;BME280;5288;42.334;23.876;2022-12-08T01:11:46;56567.22;;;-140.56;82.16
10482;BME280;5288;42.334;23.876;2022-12-08T01:14:15;56579.09;;;-140.56;82.33
10482;BME280;5288;42.334;23.876;2022-12-08T01:16:42;56575.13;;;-140.56;82.68
10482;BME280;5288;42.334;23.876;2022-12-08T01:19:10;56610.72;;;-140.56;82.85
10482;BME280;5288;42.334;23.876;2022-12-08T01:21:38;56642.34;;;-140.56;83.54
10482;BME280;5288;42.334;23.876;2022-12-08T01:24:06;56598.84;;;-140.56;84.17
10482;BME280;5288;42.334;23.876;2022-12-08T01:26:33;56632.47;;;-140.56;84.73
10482;BME280;5288;42.334;23.876;2022-12-08T01:29:00;56612.69;;;-140.56;84.80
10482;BME280;5288;42.334;23.876;2022-12-08T01:31:28;56622.56;;;-140.56;84.64
10482;BME280;5288;42.334;23.876;2022-12-08T01:33:55;56610.72;;;-140.56;84.69
10482;BME280;5288;42.334;23.876;2022-12-08T01:36:24;56563.28;;;-140.56;85.10
10482;BME280;5288;42.334;23.876;2022-12-08T01:38:53;56581.06;;;-140.56;85.11
10482;BME280;5288;42.334;23.876;2022-12-08T01:41:22;56662.09;;;-140.56;85.65
10482;BME280;5288;42.334;23.876;2022-12-08T01:43:58;56642.34;;;-140.56;85.33
10482;BME280;5288;42.334;23.876;2022-12-08T01:46:28;56592.94;;;-140.56;85.38
10482;BME280;5288;42.334;23.876;2022-12-08T01:49:01;56594.91;;;-140.56;85.83
10482;BME280;5288;42.334;23.876;2022-12-08T01:51:32;56610.72;;;-140.56;86.03
10482;BME280;5288;42.334;23.876;2022-12-08T01:54:02;56620.59;;;-140.56;86.28
10482;BME280;5288;42.334;23.876;2022-12-08T01:56:34;56587.00;;;-140.56;86.88
10482;BME280;5288;42.334;23.876;2022-12-08T01:59:02;56590.94;;;-140.56;86.92
10482;BME280;5288;42.334;23.876;2022-12-08T02:01:31;56610.72;;;-140.56;87.44
10482;BME280;5288;42.334;23.876;2022-12-08T02:03:59;56610.72;;;-140.56;87.87
10482;BME280;5288;42.334;23.876;2022-12-08T02:06:29;56622.56;;;-140.56;87.48
10482;BME280;5288;42.334;23.876;2022-12-08T02:08:59;56587.00;;;-140.56;87.34
10482;BME280;5288;42.334;23.876;2022-12-08T02:11:27;56620.59;;;-140.56;86.87
10482;BME280;5288;42.334;23.876;2022-12-08T02:13:55;56598.84;;;-140.56;86.71
10482;BME280;5288;42.334;23.876;2022-12-08T02:16:34;56596.88;;;-140.56;86.35
10482;BME280;5288;42.334;23.876;2022-12-08T02:19:23;56606.75;;;-140.56;86.50
10482;BME280;5288;42.334;23.876;2022-12-08T02:22:00;56640.38;;;-140.56;85.90
10482;BME280;5288;42.334;23.876;2022-12-08T02:24:36;56614.66;;;-140.56;85.85
10482;BME280;5288;42.334;23.876;2022-12-08T02:27:31;56622.56;;;-140.56;86.23
10482;BME280;5288;42.334;23.876;2022-12-08T02:30:11;56592.94;;;-140.56;86.65
10482;BME280;5288;42.334;23.876;2022-12-08T02:33:10;56598.84;;;-140.56;87.07
10482;BME280;5288;42.334;23.876;2022-12-08T02:35:55;56618.63;;;-140.56;87.39
10482;BME280;5288;42.334;23.876;2022-12-08T02:38:30;56644.31;;;-140.56;86.57
10482;BME280;5288;42.334;23.876;2022-12-08T02:41:07;56628.50;;;-140.56;86.50
10482;BME280;5288;42.334;23.876;2022-12-08T02:43:40;56624.56;;;-140.56;86.37
10482;BME280;5288;42.334;23.876;2022-12-08T02:46:11;56581.06;;;-140.56;85.83
10482;BME280;5288;42.334;23.876;2022-12-08T02:48:40;56624.56;;;-140.56;85.77
10482;BME280;5288;42.334;23.876;2022-12-08T02:51:09;56630.47;;;-140.56;84.93
10482;BME280;5288;42.334;23.876;2022-12-08T02:53:36;56600.84;;;-140.56;84.98
10482;BME280;5288;42.334;23.876;2022-12-08T02:56:13;56600.84;;;-140.56;84.79
10482;BME280;5288;42.334;23.876;2022-12-08T02:59:06;56622.56;;;-140.56;84.42
10482;BME280;5288;42.334;23.876;2022-12-08T03:01:47;56616.66;;;-140.56;84.45
10482;BME280;5288;42.334;23.876;2022-12-08T03:04:23;56596.88;;;-140.56;83.99
10482;BME280;5288;42.334;23.876;2022-12-08T03:06:58;56606.75;;;-140.56;84.10
10482;BME280;5288;42.334;23.876;2022-12-08T03:09:34;56604.78;;;-140.56;83.52
10482;BME280;5288;42.334;23.876;2022-12-08T03:12:08;56636.41;;;-140.56;83.63
10482;BME280;5288;42.334;23.876;2022-12-08T03:14:39;56646.28;;;-140.56;83.66
10482;BME280;5288;42.334;23.876;2022-12-08T03:17:09;56630.47;;;-140.56;83.14
10482;BME280;5288;42.334;23.876;2022-12-08T03:19:38;56628.50;;;-140.56;82.77
10482;BME280;5288;42.334;23.876;2022-12-08T03:22:10;56596.88;;;-140.56;82.67
10482;BME280;5288;42.334;23.876;2022-12-08T03:24:41;56622.56;;;-140.56;82.68
10482;BME280;5288;42.334;23.876;2022-12-08T03:27:11;56630.47;;;-140.56;82.23
10482;BME280;5288;42.334;23.876;2022-12-08T03:29:39;56636.41;;;-140.56;81.86
10482;BME280;5288;42.334;23.876;2022-12-08T03:32:10;56626.53;;;-140.56;82.67
10482;BME280;5288;42.334;23.876;2022-12-08T03:34:43;56618.63;;;-140.56;82.90
10482;BME280;5288;42.334;23.876;2022-12-08T03:37:14;56630.47;;;-140.56;82.44
10482;BME280;5288;42.334;23.876;2022-12-08T03:39:42;56626.53;;;-140.56;82.59
10482;BME280;5288;42.334;23.876;2022-12-08T03:42:09;56616.66;;;-140.56;82.72
10482;BME280;5288;42.334;23.876;2022-12-08T03:44:36;56626.53;;;-140.56;82.23
10482;BME280;5288;42.334;23.876;2022-12-08T03:47:03;56634.44;;;-140.56;82.35
10482;BME280;5288;42.334;23.876;2022-12-08T03:49:30;56634.44;;;-140.56;82.28
10482;BME280;5288;42.334;23.876;2022-12-08T03:51:57;56642.34;;;-140.56;82.90
10482;BME280;5288;42.334;23.876;2022-12-08T03:54:25;56598.84;;;-140.56;82.78
10482;BME280;5288;42.334;23.876;2022-12-08T03:56:52;56644.31;;;-140.56;83.20
10482;BME280;5288;42.334;23.876;2022-12-08T03:59:19;56606.75;;;-140.56;82.87
10482;BME280;5288;42.334;23.876;2022-12-08T04:01:46;56656.19;;;-140.56;83.28
10482;BME280;5288;42.334;23.876;2022-12-08T04:04:13;56638.38;;;-140.56;83.02
10482;BME280;5288;42.334;23.876;2022-12-08T04:06:40;56606.75;;;-140.56;82.95
10482;BME280;5288;42.334;23.876;2022-12-08T04:09:08;56624.56;;;-140.56;82.75
10482;BME280;5288;42.334;23.876;2022-12-08T04:11:36;56610.72;;;-140.56;83.02
10482;BME280;5288;42.334;23.876;2022-12-08T04:14:03;56622.56;;;-140.56;83.17
10482;BME280;5288;42.334;23.876;2022-12-08T04:16:30;56616.66;;;-140.56;83.18
10482;BME280;5288;42.334;23.876;2022-12-08T04:18:57;56585.03;;;-140.56;82.79
10482;BME280;5288;42.334;23.876;2022-12-08T04:21:24;56624.56;;;-140.56;82.89
10482;BME280;5288;42.334;23.876;2022-12-08T04:23:51;56610.72;;;-140.56;82.20
10482;BME280;5288;42.334;23.876;2022-12-08T04:26:19;56652.22;;;-140.56;82.45
10482;BME280;5288;42.334;23.876;2022-12-08T04:28:51;56630.47;;;-140.56;82.14
10482;BME280;5288;42.334;23.876;2022-12-08T04:31:18;56640.38;;;-140.56;82.23
10482;BME280;5288;42.334;23.876;2022-12-08T04:33:45;56614.66;;;-140.56;82.31
10482;BME280;5288;42.334;23.876;2022-12-08T04:36:13;56646.28;;;-140.56;82.27
10482;BME280;5288;42.334;23.876;2022-12-08T04:38:40;56616.66;;;-140.56;81.94
10482;BME280;5288;42.334;23.876;2022-12-08T04:41:07;56634.44;;;-140.56;82.50
10482;BME280;5288;42.334;23.876;2022-12-08T04:43:34;56646.28;;;-140.56;82.06
10482;BME280;5288;42.334;23.876;2022-12-08T04:46:06;56606.75;;;-140.56;81.78
10482;BME280;5288;42.334;23.876;2022-12-08T04:48:33;56642.34;;;-140.56;82.33
10482;BME280;5288;42.334;23.876;2022-12-08T04:51:02;56606.75;;;-140.56;81.99
10482;BME280;5288;42.334;23.876;2022-12-08T04:53:29;56604.78;;;-140.56;81.57
10482;BME280;5288;42.334;23.876;2022-12-08T04:55:56;56660.13;;;-140.56;81.71
10482;BME280;5288;42.334;23.876;2022-12-08T04:58:23;56632.47;;;-140.56;81.83
10482;BME280;5288;42.334;23.876;2022-12-08T05:00:50;56624.56;;;-140.56;81.36
10482;BME280;5288;42.334;23.876;2022-12-08T05:03:18;56610.72;;;-140.56;81.25
10482;BME280;5288;42.334;23.876;2022-12-08T05:05:45;56588.97;;;-140.56;81.35
10482;BME280;5288;42.334;23.876;2022-12-08T05:08:12;56620.59;;;-140.56;80.77
10482;BME280;5288;42.334;23.876;2022-12-08T05:10:39;56614.66;;;-140.56;81.19
10482;BME280;5288;42.334;23.876;2022-12-08T05:13:06;56618.63;;;-140.56;80.96
10482;BME280;5288;42.334;23.876;2022-12-08T05:15:35;56632.47;;;-140.56;81.27
10482;BME280;5288;42.334;23.876;2022-12-08T05:18:04;56652.22;;;-140.56;82.01
10482;BME280;5288;42.334;23.876;2022-12-08T05:20:32;56628.50;;;-140.56;82.05
10482;BME280;5288;42.334;23.876;2022-12-08T05:22:59;56606.75;;;-140.56;82.23
10482;BME280;5288;42.334;23.876;2022-12-08T05:25:27;56650.25;;;-140.56;82.46
10482;BME280;5288;42.334;23.876;2022-12-08T05:27:54;56636.41;;;-140.56;82.70
10482;BME280;5288;42.334;23.876;2022-12-08T05:30:21;56636.41;;;-140.56;81.96
10482;BME280;5288;42.334;23.876;2022-12-08T05:32:48;56640.38;;;-140.56;82.72
10482;BME280;5288;42.334;23.876;2022-12-08T05:35:15;56650.25;;;-140.56;82.71
10482;BME280;5288;42.334;23.876;2022-12-08T05:37:43;56594.91;;;-140.56;82.47
10482;BME280;5288;42.334;23.876;2022-12-08T05:40:11;56620.59;;;-140.56;81.76
10482;BME280;5288;42.334;23.876;2022-12-08T05:42:38;56620.59;;;-140.56;81.82
10482;BME280;5288;42.334;23.876;2022-12-08T05:45:06;56612.69;;;-140.56;81.79
10482;BME280;5288;42.334;23.876;2022-12-08T05:47:33;56622.56;;;-140.56;81.96
10482;BME280;5288;42.334;23.876;2022-12-08T05:50:00;56616.66;;;-140.56;82.38
10482;BME280;5288;42.334;23.876;2022-12-08T05:52:27;56628.50;;;-140.56;82.17
10482;BME280;5288;42.334;23.876;2022-12-08T05:54:55;56640.38;;;-140.56;81.67
10482;BME280;5288;42.334;23.876;2022-12-08T05:57:22;56622.56;;;-140.56;81.56
10482;BME280;5288;42.334;23.876;2022-12-08T05:59:49;56610.72;;;-140.56;81.66
10482;BME280;5288;42.334;23.876;2022-12-08T06:02:16;56587.00;;;-140.56;81.27
10482;BME280;5288;42.334;23.876;2022-12-08T06:04:43;56630.47;;;-140.56;80.72
10482;BME280;5288;42.334;23.876;2022-12-08T06:07:10;56606.75;;;-140.56;80.81
10482;BME280;5288;42.334;23.876;2022-12-08T06:09:37;56646.28;;;-140.56;80.64
10482;BME280;5288;42.334;23.876;2022-12-08T06:12:06;56626.53;;;-140.56;81.36
10482;BME280;5288;42.334;23.876;2022-12-08T06:14:33;56622.56;;;-140.56;81.09
10482;BME280;5288;42.334;23.876;2022-12-08T06:17:00;56642.34;;;-140.56;81.64
10482;BME280;5288;42.334;23.876;2022-12-08T06:19:27;56634.44;;;-140.56;81.66
10482;BME280;5288;42.334;23.876;2022-12-08T06:21:54;56610.72;;;-140.56;81.40
10482;BME280;5288;42.334;23.876;2022-12-08T06:24:21;56646.28;;;-140.56;81.35
10482;BME280;5288;42.334;23.876;2022-12-08T06:26:48;56606.75;;;-140.56;81.10
10482;BME280;5288;42.334;23.876;2022-12-08T06:29:16;56618.63;;;-140.56;81.24
10482;BME280;5288;42.334;23.876;2022-12-08T06:31:43;56598.84;;;-140.56;80.77
10482;BME280;5288;42.334;23.876;2022-12-08T06:34:10;56620.59;;;-140.56;80.13
10482;BME280;5288;42.334;23.876;2022-12-08T06:36:37;56596.88;;;-140.56;80.60
10482;BME280;5288;42.334;23.876;2022-12-08T06:39:04;56590.94;;;-140.56;80.34
10482;BME280;5288;42.334;23.876;2022-12-08T06:41:31;56652.22;;;-140.56;80.82
10482;BME280;5288;42.334;23.876;2022-12-08T06:44:20;56606.75;;;-140.56;80.63
10482;BME280;5288;42.334;23.876;2022-12-08T06:46:47;56638.38;;;-140.56;81.43
10482;BME280;5288;42.334;23.876;2022-12-08T06:49:14;56632.47;;;-140.56;81.07
10482;BME280;5288;42.334;23.876;2022-12-08T06:51:41;56594.91;;;-140.56;82.06
10482;BME280;5288;42.334;23.876;2022-12-08T06:54:08;56604.78;;;-140.56;81.77
10482;BME280;5288;42.334;23.876;2022-12-08T06:56:35;56602.81;;;-140.56;81.56
10482;BME280;5288;42.334;23.876;2022-12-08T06:59:03;56606.75;;;-140.56;81.99
10482;BME280;5288;42.334;23.876;2022-12-08T07:01:31;56608.75;;;-140.56;81.63
10482;BME280;5288;42.334;23.876;2022-12-08T07:03:58;56594.91;;;-140.56;82.03
10482;BME280;5288;42.334;23.876;2022-12-08T07:06:25;56592.94;;;-140.56;81.88
10482;BME280;5288;42.334;23.876;2022-12-08T07:08:52;56618.63;;;-140.56;81.83
10482;BME280;5288;42.334;23.876;2022-12-08T07:11:19;56579.09;;;-140.56;81.60
10482;BME280;5288;42.334;23.876;2022-12-08T07:13:46;56648.28;;;-140.56;81.79
10482;BME280;5288;42.334;23.876;2022-12-08T07:16:13;56596.88;;;-140.56;81.96
10482;BME280;5288;42.334;23.876;2022-12-08T07:18:42;56618.63;;;-140.56;81.29
10482;BME280;5288;42.334;23.876;2022-12-08T07:21:10;56596.88;;;-140.56;81.49
10482;BME280;5288;42.334;23.876;2022-12-08T07:23:39;56610.72;;;-140.56;80.80
10482;BME280;5288;42.334;23.876;2022-12-08T07:26:09;56610.72;;;-140.56;81.07
10482;BME280;5288;42.334;23.876;2022-12-08T07:28:38;56594.91;;;-140.56;81.29
10482;BME280;5288;42.334;23.876;2022-12-08T07:31:14;56618.63;;;-140.56;80.63
10482;BME280;5288;42.334;23.876;2022-12-08T07:33:43;56624.56;;;-140.56;81.04
10482;BME280;5288;42.334;23.876;2022-12-08T07:36:10;56624.56;;;-140.56;80.62
10482;BME280;5288;42.334;23.876;2022-12-08T07:38:37;56610.72;;;-140.56;81.48
10482;BME280;5288;42.334;23.876;2022-12-08T07:41:04;56630.47;;;-140.56;82.01
10482;BME280;5288;42.334;23.876;2022-12-08T07:43:31;56604.78;;;-140.56;82.33
10482;BME280;5288;42.334;23.876;2022-12-08T07:45:58;56626.53;;;-140.56;82.92
10482;BME280;5288;42.334;23.876;2022-12-08T07:48:25;56606.75;;;-140.56;82.40
10482;BME280;5288;42.334;23.876;2022-12-08T07:51:00;56624.56;;;-140.56;82.20
10482;BME280;5288;42.334;23.876;2022-12-08T07:53:27;56628.50;;;-140.56;81.69
10482;BME280;5288;42.334;23.876;2022-12-08T07:55:54;56596.88;;;-140.56;81.78
10482;BME280;5288;42.334;23.876;2022-12-08T07:58:21;56606.75;;;-140.56;81.73
10482;BME280;5288;42.334;23.876;2022-12-08T08:00:48;56614.66;;;-140.56;81.17
10482;BME280;5288;42.334;23.876;2022-12-08T08:03:15;56606.75;;;-140.56;81.74
10482;BME280;5288;42.334;23.876;2022-12-08T08:05:42;56606.75;;;-140.56;81.51
10482;BME280;5288;42.334;23.876;2022-12-08T08:08:11;56579.09;;;-140.56;81.79
10482;BME280;5288;42.334;23.876;2022-12-08T08:10:38;56626.53;;;-140.56;81.50
10482;BME280;5288;42.334;23.876;2022-12-08T08:13:05;56590.94;;;-140.56;81.59
10482;BME280;5288;42.334;23.876;2022-12-08T08:15:32;56598.84;;;-140.56;82.03
10482;BME280;5288;42.334;23.876;2022-12-08T08:17:59;56565.25;;;-140.56;81.96
10482;BME280;5288;42.334;23.876;2022-12-08T08:20:26;56585.03;;;-140.56;82.03
10482;BME280;5288;42.334;23.876;2022-12-08T08:22:53;56600.84;;;-140.56;81.91
10482;BME280;5288;42.334;23.876;2022-12-08T08:25:21;56608.75;;;-140.56;82.05
10482;BME280;5288;42.334;23.876;2022-12-08T08:27:49;56590.94;;;-140.56;82.12
10482;BME280;5288;42.334;23.876;2022-12-08T08:30:16;56590.94;;;-140.56;82.11
10482;BME280;5288;42.334;23.876;2022-12-08T08:32:43;56604.78;;;-140.56;82.27
10482;BME280;5288;42.334;23.876;2022-12-08T08:35:10;56594.91;;;-140.56;82.52
10482;BME280;5288;42.334;23.876;2022-12-08T08:37:38;56598.84;;;-140.56;82.65
10482;BME280;5288;42.334;23.876;2022-12-08T08:40:05;56587.00;;;-140.56;82.33
10482;BME280;5288;42.334;23.876;2022-12-08T08:42:34;56596.88;;;-140.56;82.77
10482;BME280;5288;42.334;23.876;2022-12-08T08:45:01;56579.09;;;-140.56;82.48
10482;BME280;5288;42.334;23.876;2022-12-08T08:47:28;56622.56;;;-140.56;82.25
10482;BME280;5288;42.334;23.876;2022-12-08T08:49:55;56594.91;;;-140.56;82.26
10482;BME280;5288;42.334;23.876;2022-12-08T08:52:22;56569.22;;;-140.56;82.29
10482;BME280;5288;42.334;23.876;2022-12-08T08:54:49;56590.94;;;-140.56;82.65
10482;BME280;5288;42.334;23.876;2022-12-08T08:57:16;56563.28;;;-140.56;82.87
10482;BME280;5288;42.334;23.876;2022-12-08T08:59:44;56567.22;;;-140.56;82.77
10482;BME280;5288;42.334;23.876;2022-12-08T09:02:15;56543.50;;;-140.56;82.26
10482;BME280;5288;42.334;23.876;2022-12-08T09:04:42;56579.09;;;-140.56;82.33
10482;BME280;5288;42.334;23.876;2022-12-08T09:07:10;56608.75;;;-140.56;83.48
10482;BME280;5288;42.334;23.876;2022-12-08T09:09:37;56610.72;;;-140.56;84.65
10482;BME280;5288;42.334;23.876;2022-12-08T09:12:05;56588.97;;;-140.56;85.65
10482;BME280;5288;42.334;23.876;2022-12-08T09:14:32;56604.78;;;-140.56;86.28
10482;BME280;5288;42.334;23.876;2022-12-08T09:17:01;56612.69;;;-140.56;86.91
10482;BME280;5288;42.334;23.876;2022-12-08T09:19:28;56604.78;;;-140.56;86.71
10482;BME280;5288;42.334;23.876;2022-12-08T09:21:55;56577.13;;;-140.56;86.71
10482;BME280;5288;42.334;23.876;2022-12-08T09:24:22;56608.75;;;-140.56;86.67
10482;BME280;5288;42.334;23.876;2022-12-08T09:26:49;56563.28;;;-140.56;86.59
10482;BME280;5288;42.334;23.876;2022-12-08T09:29:16;56596.88;;;-140.56;86.20
10482;BME280;5288;42.334;23.876;2022-12-08T09:31:44;56592.94;;;-140.56;86.48
10482;BME280;5288;42.334;23.876;2022-12-08T09:34:12;56620.59;;;-140.56;86.53
10482;BME280;5288;42.334;23.876;2022-12-08T09:36:40;56573.16;;;-140.56;86.76
10482;BME280;5288;42.334;23.876;2022-12-08T09:39:07;56585.03;;;-140.56;86.92
10482;BME280;5288;42.334;23.876;2022-12-08T09:41:36;56567.22;;;-140.56;86.57
10482;BME280;5288;42.334;23.876;2022-12-08T09:44:16;56590.94;;;-140.56;86.35
10482;BME280;5288;42.334;23.876;2022-12-08T09:46:47;56573.16;;;-140.56;86.08
10482;BME280;5288;42.334;23.876;2022-12-08T09:49:19;56581.06;;;-140.56;85.75
10482;BME280;5288;42.334;23.876;2022-12-08T09:51:48;56600.84;;;-140.56;85.83
10482;BME280;5288;42.334;23.876;2022-12-08T09:54:18;56590.94;;;-140.56;86.02
10482;BME280;5288;42.334;23.876;2022-12-08T09:56:47;56590.94;;;-140.56;86.22
10482;BME280;5288;42.334;23.876;2022-12-08T09:59:22;56569.22;;;-140.56;86.29
10482;BME280;5288;42.334;23.876;2022-12-08T10:01:53;56579.09;;;-140.56;86.67
10482;BME280;5288;42.334;23.876;2022-12-08T10:04:26;56575.13;;;-140.56;87.16
10482;BME280;5288;42.334;23.876;2022-12-08T10:06:59;56567.22;;;-140.56;87.25
10482;BME280;5288;42.334;23.876;2022-12-08T10:09:35;56596.88;;;-140.56;87.49
10482;BME280;5288;42.334;23.876;2022-12-08T10:12:12;56592.94;;;-140.56;87.50
10482;BME280;5288;42.334;23.876;2022-12-08T10:14:43;56590.94;;;-140.56;86.96
10482;BME280;5288;42.334;23.876;2022-12-08T10:17:16;56581.06;;;-140.56;87.28
10482;BME280;5288;42.334;23.876;2022-12-08T10:19:48;56579.09;;;-140.56;87.40
10482;BME280;5288;42.334;23.876;2022-12-08T10:22:20;56622.56;;;-140.56;87.01
10482;BME280;5288;42.334;23.876;2022-12-08T10:24:54;56553.41;;;-140.56;86.54
10482;BME280;5288;42.334;23.876;2022-12-08T10:27:24;56563.28;;;-140.56;86.71
10482;BME280;5288;42.334;23.876;2022-12-08T10:29:51;56577.13;;;-140.56;86.48
10482;BME280;5288;42.334;23.876;2022-12-08T10:32:20;56587.00;;;-140.56;85.95
10482;BME280;5288;42.334;23.876;2022-12-08T10:35:00;56573.16;;;-140.56;85.73
10482;BME280;5288;42.334;23.876;2022-12-08T10:37:28;56579.09;;;-140.56;85.80
10482;BME280;5288;42.334;23.876;2022-12-08T10:39:59;56592.94;;;-140.56;85.75
10482;BME280;5288;42.334;23.876;2022-12-08T10:42:33;56561.31;;;-140.56;85.35
10482;BME280;5288;42.334;23.876;2022-12-08T10:45:12;56577.13;;;-140.56;84.96
10482;BME280;5288;42.334;23.876;2022-12-08T10:47:54;56563.28;;;-140.56;84.99
10482;BME280;5288;42.334;23.876;2022-12-08T10:50:28;56555.38;;;-140.56;84.84
10482;BME280;5288;42.334;23.876;2022-12-08T10:52:57;56569.22;;;-140.56;84.82
10482;BME280;5288;42.334;23.876;2022-12-08T10:55:25;56557.34;;;-140.56;84.79
10482;BME280;5288;42.334;23.876;2022-12-08T10:57:52;56545.50;;;-140.56;84.33
10482;BME280;5288;42.334;23.876;2022-12-08T11:00:22;56561.31;;;-140.56;84.45
10482;BME280;5288;42.334;23.876;2022-12-08T11:02:58;56594.91;;;-140.56;84.72
10482;BME280;5288;42.334;23.876;2022-12-08T11:05:28;56563.28;;;-140.56;84.62
10482;BME280;5288;42.334;23.876;2022-12-08T11:07:58;56535.59;;;-140.56;84.74
10482;BME280;5288;42.334;23.876;2022-12-08T11:10:34;56577.13;;;-140.56;84.52
10482;BME280;5288;42.334;23.876;2022-12-08T11:13:04;56551.41;;;-140.56;84.16
10482;BME280;5288;42.334;23.876;2022-12-08T11:15:34;56551.41;;;-140.56;83.86
10482;BME280;5288;42.334;23.876;2022-12-08T11:18:11;56588.97;;;-140.56;84.48
10482;BME280;5288;42.334;23.876;2022-12-08T11:20:46;56563.28;;;-140.56;85.28
10482;BME280;5288;42.334;23.876;2022-12-08T11:23:23;56549.44;;;-140.56;85.36
10482;BME280;5288;42.334;23.876;2022-12-08T11:25:51;56551.41;;;-140.56;84.86
10482;BME280;5288;42.334;23.876;2022-12-08T11:28:24;56583.03;;;-140.56;84.32
10482;BME280;5288;42.334;23.876;2022-12-08T11:30:59;56529.69;;;-140.56;83.49
10482;BME280;5288;42.334;23.876;2022-12-08T11:33:29;56561.31;;;-140.56;83.52
10482;BME280;5288;42.334;23.876;2022-12-08T11:36:02;56527.72;;;-140.56;83.06
10482;BME280;5288;42.334;23.876;2022-12-08T11:38:32;56543.50;;;-140.56;82.88
10482;BME280;5288;42.334;23.876;2022-12-08T11:41:03;56585.03;;;-140.56;82.53
10482;BME280;5288;42.334;23.876;2022-12-08T11:43:39;56525.72;;;-140.56;82.14
10482;BME280;5288;42.334;23.876;2022-12-08T11:46:13;56547.47;;;-140.56;82.75
10482;BME280;5288;42.334;23.876;2022-12-08T11:48:46;56590.94;;;-140.56;83.21
10482;BME280;5288;42.334;23.876;2022-12-08T11:51:20;56561.31;;;-140.56;83.44
10482;BME280;5288;42.334;23.876;2022-12-08T11:54:01;56557.34;;;-140.56;83.65
10482;BME280;5288;42.334;23.876;2022-12-08T11:56:33;56547.47;;;-140.56;83.89
10482;BME280;5288;42.334;23.876;2022-12-08T11:59:07;56563.28;;;-140.56;83.81
10482;BME280;5288;42.334;23.876;2022-12-08T12:01:36;56573.16;;;-140.56;83.81
10482;BME280;5288;42.334;23.876;2022-12-08T12:04:13;56569.22;;;-140.56;83.65
10482;BME280;5288;42.334;23.876;2022-12-08T12:07:23;56547.47;;;-140.56;83.18
10482;BME280;5288;42.334;23.876;2022-12-08T12:10:08;56567.22;;;-140.56;82.76
10482;BME280;5288;42.334;23.876;2022-12-08T12:12:50;56559.31;;;-140.56;82.77
10482;BME280;5288;42.334;23.876;2022-12-08T12:15:54;56551.41;;;-140.56;82.65
10482;BME280;5288;42.334;23.876;2022-12-08T12:18:32;56555.38;;;-140.56;82.50
10482;BME280;5288;42.334;23.876;2022-12-08T12:21:05;56567.22;;;-140.56;81.79
10482;BME280;5288;42.334;23.876;2022-12-08T12:23:38;56545.50;;;-140.56;81.83
10482;BME280;5288;42.334;23.876;2022-12-08T12:26:09;56559.31;;;-140.56;81.71
10482;BME280;5288;42.334;23.876;2022-12-08T12:28:44;56511.91;;;-140.56;81.89
10482;BME280;5288;42.334;23.876;2022-12-08T12:31:17;56577.13;;;-140.56;82.08
10482;BME280;5288;42.334;23.876;2022-12-08T12:33:46;56581.06;;;-140.56;82.43
10482;BME280;5288;42.334;23.876;2022-12-08T12:36:13;56565.25;;;-140.56;82.87
10482;BME280;5288;42.334;23.876;2022-12-08T12:38:46;56573.16;;;-140.56;83.06
10482;BME280;5288;42.334;23.876;2022-12-08T12:41:35;56539.56;;;-140.56;82.53
10482;BME280;5288;42.334;23.876;2022-12-08T12:47:43;56557.34;;;-140.56;82.60
10482;BME280;5288;42.334;23.876;2022-12-08T12:50:11;56545.50;;;-140.56;82.40
10482;BME280;5288;42.334;23.876;2022-12-08T12:52:41;56541.53;;;-140.56;82.08
10482;BME280;5288;42.334;23.876;2022-12-08T12:58:32;56553.41;;;-140.56;83.08
10482;BME280;5288;42.334;23.876;2022-12-08T13:04:18;56541.53;;;-140.56;84.28
10482;BME280;5288;42.334;23.876;2022-12-08T13:06:47;56547.47;;;-140.56;83.92